sensor_id;sensor_type;location;lat;lon;timestamp;pressure;altitude;pressure_sealevel;temperature;humidity
76260;BME280;65076;52.362;6.588;2023-08-08T00:01:48;101321.13;;;15.60;76.40
76260;BME280;65076;52.362;6.588;2023-08-08T00:04:16;101327.44;;;15.61;77.51
76260;BME280;65076;52.362;6.588;2023-08-08T00:06:44;101329.16;;;15.78;76.44
76260;BME280;65076;52.362;6.588;2023-08-08T00:09:12;101334.41;;;15.51;77.61
76260;BME280;65076;52.362;6.588;2023-08-08T00:11:41;101330.56;;;15.39;78.86
76260;BME280;65076;52.362;6.588;2023-08-08T00:14:09;101333.78;;;15.61;79.36
76260;BME280;65076;52.362;6.588;2023-08-08T00:16:37;101327.84;;;15.39;79.55
76260;BME280;65076;52.362;6.588;2023-08-08T00:19:06;101322.00;;;15.31;80.36
76260;BME280;65076;52.362;6.588;2023-08-08T00:21:34;101317.81;;;15.40;80.42
76260;BME280;65076;52.362;6.588;2023-08-08T00:24:02;101315.66;;;15.60;80.21
76260;BME280;65076;52.362;6.588;2023-08-08T00:26:31;101317.66;;;15.43;80.04
76260;BME280;65076;52.362;6.588;2023-08-08T00:28:59;101312.75;;;15.63;80.21
76260;BME280;65076;52.362;6.588;2023-08-08T00:31:27;101320.22;;;15.60;80.55
76260;BME280;65076;52.362;6.588;2023-08-08T00:33:55;101320.38;;;15.43;80.57
76260;BME280;65076;52.362;6.588;2023-08-08T00:36:24;101318.00;;;15.52;80.43
76260;BME280;65076;52.362;6.588;2023-08-08T00:38:52;101310.03;;;15.63;80.30
76260;BME280;65076;52.362;6.588;2023-08-08T00:41:20;101304.47;;;15.65;80.14
76260;BME280;65076;52.362;6.588;2023-08-08T00:43:48;101308.34;;;15.61;80.56
76260;BME280;65076;52.362;6.588;2023-08-08T00:46:17;101311.38;;;15.71;80.51
76260;BME280;65076;52.362;6.588;2023-08-08T00:48:51;101308.66;;;15.56;80.11
76260;BME280;65076;52.362;6.588;2023-08-08T00:51:20;101306.34;;;15.64;80.08
76260;BME280;65076;52.362;6.588;2023-08-08T00:53:50;101303.03;;;15.74;80.06
76260;BME280;65076;52.362;6.588;2023-08-08T00:56:19;101306.72;;;15.58;80.22
76260;BME280;65076;52.362;6.588;2023-08-08T00:58:48;101291.50;;;15.54;80.67
76260;BME280;65076;52.362;6.588;2023-08-08T01:01:17;101296.88;;;15.40;81.24
76260;BME280;65076;52.362;6.588;2023-08-08T01:03:46;101285.19;;;15.68;80.84
76260;BME280;65076;52.362;6.588;2023-08-08T01:06:22;101289.97;;;15.79;80.41
76260;BME280;65076;52.362;6.588;2023-08-08T01:08:58;101285.41;;;15.79;80.06
76260;BME280;65076;52.362;6.588;2023-08-08T01:11:33;101290.84;;;15.79;80.77
76260;BME280;65076;52.362;6.588;2023-08-08T01:14:06;101274.28;;;15.68;80.92
76260;BME280;65076;52.362;6.588;2023-08-08T01:16:37;101276.63;;;15.44;82.02
76260;BME280;65076;52.362;6.588;2023-08-08T01:19:06;101275.16;;;15.54;82.21
76260;BME280;65076;52.362;6.588;2023-08-08T01:21:38;101279.44;;;15.58;81.64
76260;BME280;65076;52.362;6.588;2023-08-08T01:24:18;101279.66;;;15.70;80.93
76260;BME280;65076;52.362;6.588;2023-08-08T01:26:47;101288.28;;;15.62;81.72
76260;BME280;65076;52.362;6.588;2023-08-08T01:29:16;101280.78;;;15.51;83.03
76260;BME280;65076;52.362;6.588;2023-08-08T01:31:44;101280.09;;;15.62;82.53
76260;BME280;65076;52.362;6.588;2023-08-08T01:34:12;101270.97;;;15.63;81.88
76260;BME280;65076;52.362;6.588;2023-08-08T01:36:46;101269.88;;;15.65;82.04
76260;BME280;65076;52.362;6.588;2023-08-08T01:39:24;101278.19;;;15.64;82.32
76260;BME280;65076;52.362;6.588;2023-08-08T01:41:54;101273.19;;;15.71;82.18
76260;BME280;65076;52.362;6.588;2023-08-08T01:44:23;101278.06;;;15.65;82.10
76260;BME280;65076;52.362;6.588;2023-08-08T01:46:53;101270.38;;;15.58;83.20
76260;BME280;65076;52.362;6.588;2023-08-08T01:49:21;101271.63;;;15.52;83.33
76260;BME280;65076;52.362;6.588;2023-08-08T01:51:49;101267.19;;;15.80;82.15
76260;BME280;65076;52.362;6.588;2023-08-08T01:54:20;101269.78;;;15.81;82.19
76260;BME280;65076;52.362;6.588;2023-08-08T01:56:48;101273.91;;;15.74;82.95
76260;BME280;65076;52.362;6.588;2023-08-08T01:59:15;101268.91;;;15.52;83.57
76260;BME280;65076;52.362;6.588;2023-08-08T02:01:43;101276.44;;;15.47;84.42
76260;BME280;65076;52.362;6.588;2023-08-08T02:04:12;101273.97;;;15.87;82.62
76260;BME280;65076;52.362;6.588;2023-08-08T02:06:40;101283.50;;;15.65;82.76
76260;BME280;65076;52.362;6.588;2023-08-08T02:09:08;101283.47;;;15.95;82.15
76260;BME280;65076;52.362;6.588;2023-08-08T02:11:37;101269.00;;;15.65;82.78
76260;BME280;65076;52.362;6.588;2023-08-08T02:14:06;101275.75;;;15.74;83.60
76260;BME280;65076;52.362;6.588;2023-08-08T02:16:33;101262.56;;;15.66;82.73
76260;BME280;65076;52.362;6.588;2023-08-08T02:19:01;101255.50;;;15.48;83.87
76260;BME280;65076;52.362;6.588;2023-08-08T02:21:29;101262.09;;;15.74;84.01
76260;BME280;65076;52.362;6.588;2023-08-08T02:23:57;101256.94;;;15.69;84.11
76260;BME280;65076;52.362;6.588;2023-08-08T02:26:25;101250.69;;;15.81;83.41
76260;BME280;65076;52.362;6.588;2023-08-08T02:28:54;101250.00;;;15.63;84.04
76260;BME280;65076;52.362;6.588;2023-08-08T02:31:22;101237.38;;;15.91;82.93
76260;BME280;65076;52.362;6.588;2023-08-08T02:33:51;101239.91;;;15.80;83.25
76260;BME280;65076;52.362;6.588;2023-08-08T02:36:19;101240.28;;;15.59;83.59
76260;BME280;65076;52.362;6.588;2023-08-08T02:38:47;101232.47;;;15.96;83.41
76260;BME280;65076;52.362;6.588;2023-08-08T02:41:16;101234.91;;;15.72;82.93
76260;BME280;65076;52.362;6.588;2023-08-08T02:43:44;101234.50;;;15.92;82.82
76260;BME280;65076;52.362;6.588;2023-08-08T02:46:14;101233.25;;;15.70;83.43
76260;BME280;65076;52.362;6.588;2023-08-08T02:48:42;101228.84;;;15.81;83.90
76260;BME280;65076;52.362;6.588;2023-08-08T02:51:10;101228.69;;;15.84;82.89
76260;BME280;65076;52.362;6.588;2023-08-08T02:53:38;101226.03;;;15.83;83.50
76260;BME280;65076;52.362;6.588;2023-08-08T02:56:06;101230.41;;;15.57;83.52
76260;BME280;65076;52.362;6.588;2023-08-08T02:58:34;101221.81;;;15.49;84.00
76260;BME280;65076;52.362;6.588;2023-08-08T03:01:02;101218.25;;;15.77;83.32
76260;BME280;65076;52.362;6.588;2023-08-08T03:03:32;101221.25;;;15.72;83.51
76260;BME280;65076;52.362;6.588;2023-08-08T03:06:00;101212.84;;;15.47;83.47
76260;BME280;65076;52.362;6.588;2023-08-08T03:08:29;101209.56;;;15.84;82.85
76260;BME280;65076;52.362;6.588;2023-08-08T03:10:57;101217.50;;;15.45;83.49
76260;BME280;65076;52.362;6.588;2023-08-08T03:13:25;101214.03;;;15.71;82.88
76260;BME280;65076;52.362;6.588;2023-08-08T03:15:53;101210.75;;;15.52;83.17
76260;BME280;65076;52.362;6.588;2023-08-08T03:18:23;101214.53;;;15.78;82.71
76260;BME280;65076;52.362;6.588;2023-08-08T03:20:53;101211.53;;;15.68;83.86
76260;BME280;65076;52.362;6.588;2023-08-08T03:23:21;101224.59;;;15.63;83.46
76260;BME280;65076;52.362;6.588;2023-08-08T03:25:50;101205.19;;;15.67;83.56
76260;BME280;65076;52.362;6.588;2023-08-08T03:28:18;101211.13;;;15.60;83.39
76260;BME280;65076;52.362;6.588;2023-08-08T03:30:46;101211.41;;;15.55;83.20
76260;BME280;65076;52.362;6.588;2023-08-08T03:33:14;101204.41;;;15.65;83.09
76260;BME280;65076;52.362;6.588;2023-08-08T03:35:43;101206.25;;;15.79;82.63
76260;BME280;65076;52.362;6.588;2023-08-08T03:38:12;101207.81;;;15.83;82.25
76260;BME280;65076;52.362;6.588;2023-08-08T03:40:40;101207.81;;;15.55;83.33
76260;BME280;65076;52.362;6.588;2023-08-08T03:43:08;101215.59;;;15.61;83.50
76260;BME280;65076;52.362;6.588;2023-08-08T03:45:36;101204.22;;;15.83;82.88
76260;BME280;65076;52.362;6.588;2023-08-08T03:48:04;101198.28;;;15.62;83.45
76260;BME280;65076;52.362;6.588;2023-08-08T03:50:33;101200.41;;;15.57;84.19
76260;BME280;65076;52.362;6.588;2023-08-08T03:53:01;101200.56;;;15.40;84.43
76260;BME280;65076;52.362;6.588;2023-08-08T03:55:31;101196.41;;;15.48;83.84
76260;BME280;65076;52.362;6.588;2023-08-08T03:58:00;101194.75;;;15.60;84.43
76260;BME280;65076;52.362;6.588;2023-08-08T04:00:28;101192.75;;;15.34;85.29
76260;BME280;65076;52.362;6.588;2023-08-08T04:02:56;101190.94;;;15.48;84.70
76260;BME280;65076;52.362;6.588;2023-08-08T04:05:24;101197.16;;;15.36;85.41
76260;BME280;65076;52.362;6.588;2023-08-08T04:07:52;101192.88;;;15.46;84.87
76260;BME280;65076;52.362;6.588;2023-08-08T04:10:20;101202.22;;;15.42;85.12
76260;BME280;65076;52.362;6.588;2023-08-08T04:12:49;101197.59;;;15.73;83.68
76260;BME280;65076;52.362;6.588;2023-08-08T04:15:17;101193.13;;;15.57;84.47
76260;BME280;65076;52.362;6.588;2023-08-08T04:17:45;101193.91;;;15.59;84.08
76260;BME280;65076;52.362;6.588;2023-08-08T04:20:13;101190.38;;;15.72;84.47
76260;BME280;65076;52.362;6.588;2023-08-08T04:22:42;101189.31;;;15.74;83.82
76260;BME280;65076;52.362;6.588;2023-08-08T04:25:10;101197.59;;;15.58;83.98
76260;BME280;65076;52.362;6.588;2023-08-08T04:27:38;101195.03;;;15.55;84.21
76260;BME280;65076;52.362;6.588;2023-08-08T04:30:08;101186.69;;;15.73;83.33
76260;BME280;65076;52.362;6.588;2023-08-08T04:32:37;101193.59;;;15.78;83.88
76260;BME280;65076;52.362;6.588;2023-08-08T04:35:06;101189.56;;;15.98;82.45
76260;BME280;65076;52.362;6.588;2023-08-08T04:37:34;101189.97;;;15.78;82.78
76260;BME280;65076;52.362;6.588;2023-08-08T04:40:02;101191.56;;;15.53;84.41
76260;BME280;65076;52.362;6.588;2023-08-08T04:42:31;101189.22;;;15.90;82.97
76260;BME280;65076;52.362;6.588;2023-08-08T04:44:59;101189.75;;;16.09;81.90
76260;BME280;65076;52.362;6.588;2023-08-08T04:47:29;101186.66;;;16.01;82.32
76260;BME280;65076;52.362;6.588;2023-08-08T04:49:57;101188.34;;;16.30;81.52
76260;BME280;65076;52.362;6.588;2023-08-08T04:52:25;101178.63;;;16.39;80.31
76260;BME280;65076;52.362;6.588;2023-08-08T04:54:53;101184.09;;;15.98;81.32
76260;BME280;65076;52.362;6.588;2023-08-08T04:57:21;101178.47;;;15.87;82.48
76260;BME280;65076;52.362;6.588;2023-08-08T04:59:49;101179.78;;;16.22;80.95
76260;BME280;65076;52.362;6.588;2023-08-08T05:02:17;101169.09;;;16.05;81.79
76260;BME280;65076;52.362;6.588;2023-08-08T05:04:47;101169.00;;;16.33;80.15
76260;BME280;65076;52.362;6.588;2023-08-08T05:07:16;101183.94;;;16.01;81.14
76260;BME280;65076;52.362;6.588;2023-08-08T05:09:44;101177.31;;;16.32;81.37
76260;BME280;65076;52.362;6.588;2023-08-08T05:12:12;101170.09;;;16.58;79.52
76260;BME280;65076;52.362;6.588;2023-08-08T05:14:40;101169.72;;;16.49;78.86
76260;BME280;65076;52.362;6.588;2023-08-08T05:17:08;101152.91;;;16.43;79.07
76260;BME280;65076;52.362;6.588;2023-08-08T05:19:36;101168.78;;;16.09;79.98
76260;BME280;65076;52.362;6.588;2023-08-08T05:22:05;101167.13;;;16.48;79.86
76260;BME280;65076;52.362;6.588;2023-08-08T05:24:33;101166.28;;;16.60;78.68
76260;BME280;65076;52.362;6.588;2023-08-08T05:27:02;101163.97;;;16.27;79.45
76260;BME280;65076;52.362;6.588;2023-08-08T05:29:30;101171.88;;;16.44;79.10
76260;BME280;65076;52.362;6.588;2023-08-08T05:31:58;101168.75;;;16.24;79.72
76260;BME280;65076;52.362;6.588;2023-08-08T05:34:27;101165.50;;;16.58;78.67
76260;BME280;65076;52.362;6.588;2023-08-08T05:36:55;101165.84;;;16.53;78.21
76260;BME280;65076;52.362;6.588;2023-08-08T05:39:27;101171.88;;;16.44;79.16
76260;BME280;65076;52.362;6.588;2023-08-08T05:41:55;101167.25;;;16.86;77.69
76260;BME280;65076;52.362;6.588;2023-08-08T05:44:23;101173.75;;;17.10;75.60
76260;BME280;65076;52.362;6.588;2023-08-08T05:46:51;101161.41;;;17.30;75.49
76260;BME280;65076;52.362;6.588;2023-08-08T05:49:19;101170.91;;;17.75;73.78
76260;BME280;65076;52.362;6.588;2023-08-08T05:51:47;101174.97;;;17.82;72.12
76260;BME280;65076;52.362;6.588;2023-08-08T05:54:18;101170.13;;;18.35;70.04
76260;BME280;65076;52.362;6.588;2023-08-08T05:56:48;101173.41;;;18.03;70.53
76260;BME280;65076;52.362;6.588;2023-08-08T05:59:16;101171.06;;;18.70;68.31
76260;BME280;65076;52.362;6.588;2023-08-08T06:01:44;101168.28;;;18.59;69.31
76260;BME280;65076;52.362;6.588;2023-08-08T06:04:12;101171.28;;;19.26;66.28
76260;BME280;65076;52.362;6.588;2023-08-08T06:06:41;101175.47;;;19.08;66.99
76260;BME280;65076;52.362;6.588;2023-08-08T06:09:10;101178.19;;;19.54;64.83
76260;BME280;65076;52.362;6.588;2023-08-08T06:11:38;101177.34;;;19.86;64.19
76260;BME280;65076;52.362;6.588;2023-08-08T06:14:08;101176.25;;;19.78;64.98
76260;BME280;65076;52.362;6.588;2023-08-08T06:16:36;101175.25;;;19.68;63.59
76260;BME280;65076;52.362;6.588;2023-08-08T06:19:04;101180.31;;;20.06;63.83
76260;BME280;65076;52.362;6.588;2023-08-08T06:21:32;101178.69;;;20.37;60.98
76260;BME280;65076;52.362;6.588;2023-08-08T06:24:00;101168.81;;;20.23;60.85
76260;BME280;65076;52.362;6.588;2023-08-08T06:26:28;101183.66;;;20.86;60.42
76260;BME280;65076;52.362;6.588;2023-08-08T06:28:56;101187.94;;;20.79;58.57
76260;BME280;65076;52.362;6.588;2023-08-08T06:31:26;101192.06;;;20.30;60.15
76260;BME280;65076;52.362;6.588;2023-08-08T06:33:54;101190.53;;;20.48;61.31
76260;BME280;65076;52.362;6.588;2023-08-08T06:36:22;101181.75;;;20.97;57.77
76260;BME280;65076;52.362;6.588;2023-08-08T06:38:49;101186.06;;;20.36;59.90
76260;BME280;65076;52.362;6.588;2023-08-08T06:41:17;101191.13;;;20.52;58.75
76260;BME280;65076;52.362;6.588;2023-08-08T06:43:45;101191.13;;;20.95;57.99
76260;BME280;65076;52.362;6.588;2023-08-08T06:46:13;101189.16;;;20.86;57.34
76260;BME280;65076;52.362;6.588;2023-08-08T06:48:43;101191.91;;;20.86;56.60
76260;BME280;65076;52.362;6.588;2023-08-08T06:51:12;101192.28;;;21.13;56.45
76260;BME280;65076;52.362;6.588;2023-08-08T06:53:40;101195.19;;;21.53;55.97
76260;BME280;65076;52.362;6.588;2023-08-08T06:56:08;101191.03;;;20.85;57.33
76260;BME280;65076;52.362;6.588;2023-08-08T06:58:36;101185.09;;;21.01;57.66
76260;BME280;65076;52.362;6.588;2023-08-08T07:01:04;101179.09;;;21.28;54.60
76260;BME280;65076;52.362;6.588;2023-08-08T07:03:32;101183.94;;;21.35;55.45
76260;BME280;65076;52.362;6.588;2023-08-08T07:06:09;101181.22;;;21.66;56.06
76260;BME280;65076;52.362;6.588;2023-08-08T07:08:37;101185.13;;;20.90;56.51
76260;BME280;65076;52.362;6.588;2023-08-08T07:11:06;101175.84;;;21.64;54.50
76260;BME280;65076;52.362;6.588;2023-08-08T07:13:34;101180.94;;;21.06;56.37
76260;BME280;65076;52.362;6.588;2023-08-08T07:16:03;101185.81;;;21.86;52.41
76260;BME280;65076;52.362;6.588;2023-08-08T07:18:31;101173.16;;;22.04;52.32
76260;BME280;65076;52.362;6.588;2023-08-08T07:21:00;101181.88;;;22.09;51.80
76260;BME280;65076;52.362;6.588;2023-08-08T07:23:29;101171.38;;;22.33;50.80
76260;BME280;65076;52.362;6.588;2023-08-08T07:25:57;101182.09;;;20.72;54.42
76260;BME280;65076;52.362;6.588;2023-08-08T07:28:36;101173.91;;;21.13;53.10
76260;BME280;65076;52.362;6.588;2023-08-08T07:31:04;101176.63;;;21.96;52.03
76260;BME280;65076;52.362;6.588;2023-08-08T07:33:32;101175.81;;;21.54;52.28
76260;BME280;65076;52.362;6.588;2023-08-08T07:36:00;101172.22;;;21.64;51.99
76260;BME280;65076;52.362;6.588;2023-08-08T07:38:31;101167.69;;;21.93;52.48
76260;BME280;65076;52.362;6.588;2023-08-08T07:40:59;101178.03;;;21.19;53.71
76260;BME280;65076;52.362;6.588;2023-08-08T07:43:28;101174.22;;;20.99;53.71
76260;BME280;65076;52.362;6.588;2023-08-08T07:45:56;101166.94;;;21.51;51.80
76260;BME280;65076;52.362;6.588;2023-08-08T07:48:24;101163.19;;;21.31;52.37
76260;BME280;65076;52.362;6.588;2023-08-08T07:50:52;101157.94;;;21.79;49.41
76260;BME280;65076;52.362;6.588;2023-08-08T07:53:20;101155.63;;;22.74;48.93
76260;BME280;65076;52.362;6.588;2023-08-08T07:55:49;101150.75;;;22.28;49.63
76260;BME280;65076;52.362;6.588;2023-08-08T07:58:17;101152.72;;;23.23;46.44
76260;BME280;65076;52.362;6.588;2023-08-08T08:00:45;101140.69;;;22.86;47.23
76260;BME280;65076;52.362;6.588;2023-08-08T08:03:14;101139.75;;;23.34;44.70
76260;BME280;65076;52.362;6.588;2023-08-08T08:05:42;101145.78;;;22.81;46.23
76260;BME280;65076;52.362;6.588;2023-08-08T08:08:10;101148.81;;;22.97;45.88
76260;BME280;65076;52.362;6.588;2023-08-08T08:10:38;101140.03;;;23.50;44.35
76260;BME280;65076;52.362;6.588;2023-08-08T08:13:08;101144.47;;;22.85;46.01
76260;BME280;65076;52.362;6.588;2023-08-08T08:15:37;101137.31;;;23.77;44.72
76260;BME280;65076;52.362;6.588;2023-08-08T08:18:05;101145.81;;;23.56;43.57
76260;BME280;65076;52.362;6.588;2023-08-08T08:20:33;101139.06;;;24.05;44.94
76260;BME280;65076;52.362;6.588;2023-08-08T08:23:01;101134.31;;;23.61;45.84
76260;BME280;65076;52.362;6.588;2023-08-08T08:25:29;101141.25;;;23.18;45.06
76260;BME280;65076;52.362;6.588;2023-08-08T08:27:58;101134.94;;;23.45;43.68
76260;BME280;65076;52.362;6.588;2023-08-08T08:30:27;101147.19;;;23.14;44.77
76260;BME280;65076;52.362;6.588;2023-08-08T08:32:55;101140.19;;;23.48;46.48
76260;BME280;65076;52.362;6.588;2023-08-08T08:35:24;101135.22;;;23.42;45.54
76260;BME280;65076;52.362;6.588;2023-08-08T08:37:52;101137.50;;;23.66;44.03
76260;BME280;65076;52.362;6.588;2023-08-08T08:40:20;101137.75;;;23.16;46.33
76260;BME280;65076;52.362;6.588;2023-08-08T08:42:49;101142.56;;;22.86;45.83
76260;BME280;65076;52.362;6.588;2023-08-08T08:45:18;101131.28;;;22.20;48.65
76260;BME280;65076;52.362;6.588;2023-08-08T08:47:49;101143.47;;;21.56;49.33
76260;BME280;65076;52.362;6.588;2023-08-08T08:50:19;101142.84;;;21.43;50.67
76260;BME280;65076;52.362;6.588;2023-08-08T08:52:47;101143.13;;;21.20;49.94
76260;BME280;65076;52.362;6.588;2023-08-08T08:55:18;101149.66;;;21.07;50.11
76260;BME280;65076;52.362;6.588;2023-08-08T08:57:46;101137.88;;;21.68;49.29
76260;BME280;65076;52.362;6.588;2023-08-08T09:00:15;101147.00;;;21.38;50.37
76260;BME280;65076;52.362;6.588;2023-08-08T09:02:46;101132.06;;;21.61;48.93
76260;BME280;65076;52.362;6.588;2023-08-08T09:05:18;101147.75;;;21.19;49.73
76260;BME280;65076;52.362;6.588;2023-08-08T09:07:49;101141.56;;;20.74;50.60
76260;BME280;65076;52.362;6.588;2023-08-08T09:10:18;101137.72;;;20.97;50.26
76260;BME280;65076;52.362;6.588;2023-08-08T09:12:47;101136.75;;;21.19;49.85
76260;BME280;65076;52.362;6.588;2023-08-08T09:15:16;101139.38;;;20.89;52.53
76260;BME280;65076;52.362;6.588;2023-08-08T09:17:45;101145.66;;;20.80;51.50
76260;BME280;65076;52.362;6.588;2023-08-08T09:20:17;101147.50;;;20.90;52.98
76260;BME280;65076;52.362;6.588;2023-08-08T09:22:44;101148.00;;;21.16;52.15
76260;BME280;65076;52.362;6.588;2023-08-08T09:25:12;101140.28;;;21.82;50.52
76260;BME280;65076;52.362;6.588;2023-08-08T09:27:40;101124.28;;;22.75;46.81
76260;BME280;65076;52.362;6.588;2023-08-08T09:30:10;101130.63;;;22.66;47.00
76260;BME280;65076;52.362;6.588;2023-08-08T09:32:39;101134.00;;;22.10;49.18
76260;BME280;65076;52.362;6.588;2023-08-08T09:35:07;101151.19;;;22.33;48.63
76260;BME280;65076;52.362;6.588;2023-08-08T09:37:38;101143.00;;;22.91;45.97
76260;BME280;65076;52.362;6.588;2023-08-08T09:40:07;101132.22;;;22.49;43.18
76260;BME280;65076;52.362;6.588;2023-08-08T09:42:39;101126.88;;;23.61;43.56
76260;BME280;65076;52.362;6.588;2023-08-08T09:45:09;101128.28;;;22.42;44.89
76260;BME280;65076;52.362;6.588;2023-08-08T09:47:38;101138.66;;;22.19;46.14
76260;BME280;65076;52.362;6.588;2023-08-08T09:50:07;101160.81;;;21.06;54.29
76260;BME280;65076;52.362;6.588;2023-08-08T09:52:37;101170.47;;;19.70;65.34
76260;BME280;65076;52.362;6.588;2023-08-08T09:55:06;101177.53;;;18.45;67.01
76260;BME280;65076;52.362;6.588;2023-08-08T09:57:35;101180.97;;;18.36;66.74
76260;BME280;65076;52.362;6.588;2023-08-08T10:00:06;101180.53;;;17.93;70.24
76260;BME280;65076;52.362;6.588;2023-08-08T10:02:43;101177.06;;;18.51;70.28
76260;BME280;65076;52.362;6.588;2023-08-08T10:05:13;101173.44;;;18.98;71.69
76260;BME280;65076;52.362;6.588;2023-08-08T10:07:44;101164.00;;;19.60;67.75
76260;BME280;65076;52.362;6.588;2023-08-08T10:10:13;101157.28;;;20.83;63.30
76260;BME280;65076;52.362;6.588;2023-08-08T10:12:42;101164.88;;;20.59;63.68
76260;BME280;65076;52.362;6.588;2023-08-08T10:15:10;101154.66;;;21.34;60.82
76260;BME280;65076;52.362;6.588;2023-08-08T10:17:39;101149.13;;;22.25;56.79
76260;BME280;65076;52.362;6.588;2023-08-08T10:20:08;101161.31;;;22.13;54.58
76260;BME280;65076;52.362;6.588;2023-08-08T10:22:42;101154.88;;;21.10;60.08
76260;BME280;65076;52.362;6.588;2023-08-08T10:25:23;101155.06;;;21.81;56.88
76260;BME280;65076;52.362;6.588;2023-08-08T10:28:03;101156.22;;;21.88;57.65
76260;BME280;65076;52.362;6.588;2023-08-08T10:30:53;101157.69;;;21.82;57.51
76260;BME280;65076;52.362;6.588;2023-08-08T10:33:23;101175.75;;;21.45;56.11
76260;BME280;65076;52.362;6.588;2023-08-08T10:35:59;101168.47;;;20.70;55.96
76260;BME280;65076;52.362;6.588;2023-08-08T10:38:40;101160.41;;;21.52;54.80
76260;BME280;65076;52.362;6.588;2023-08-08T10:41:11;101158.81;;;22.10;53.89
76260;BME280;65076;52.362;6.588;2023-08-08T10:43:57;101161.69;;;21.78;53.00
76260;BME280;65076;52.362;6.588;2023-08-08T10:46:27;101161.47;;;20.78;56.85
76260;BME280;65076;52.362;6.588;2023-08-08T10:48:57;101163.34;;;20.01;60.85
76260;BME280;65076;52.362;6.588;2023-08-08T10:51:47;101176.47;;;19.64;62.72
76260;BME280;65076;52.362;6.588;2023-08-08T10:54:19;101177.44;;;18.94;63.04
76260;BME280;65076;52.362;6.588;2023-08-08T11:00:16;101186.72;;;19.73;63.57
76260;BME280;65076;52.362;6.588;2023-08-08T11:02:44;101188.34;;;19.98;62.23
76260;BME280;65076;52.362;6.588;2023-08-08T11:05:14;101189.22;;;19.87;62.41
76260;BME280;65076;52.362;6.588;2023-08-08T11:07:43;101188.06;;;19.45;62.64
76260;BME280;65076;52.362;6.588;2023-08-08T11:10:12;101194.81;;;19.63;64.80
76260;BME280;65076;52.362;6.588;2023-08-08T11:12:40;101188.69;;;19.14;64.88
76260;BME280;65076;52.362;6.588;2023-08-08T11:15:09;101173.88;;;19.62;63.37
76260;BME280;65076;52.362;6.588;2023-08-08T11:17:37;101171.53;;;19.34;65.16
76260;BME280;65076;52.362;6.588;2023-08-08T11:20:06;101163.00;;;19.61;63.51
76260;BME280;65076;52.362;6.588;2023-08-08T11:22:34;101167.09;;;20.00;61.66
76260;BME280;65076;52.362;6.588;2023-08-08T11:25:03;101152.13;;;20.04;60.09
76260;BME280;65076;52.362;6.588;2023-08-08T11:27:34;101144.97;;;20.23;60.24
76260;BME280;65076;52.362;6.588;2023-08-08T11:30:08;101142.44;;;20.43;57.71
76260;BME280;65076;52.362;6.588;2023-08-08T11:32:36;101142.50;;;21.16;58.74
76260;BME280;65076;52.362;6.588;2023-08-08T11:35:05;101133.34;;;22.27;55.55
76260;BME280;65076;52.362;6.588;2023-08-08T11:37:34;101137.59;;;23.18;52.98
76260;BME280;65076;52.362;6.588;2023-08-08T11:40:04;101133.94;;;24.20;47.32
76260;BME280;65076;52.362;6.588;2023-08-08T11:42:36;101129.06;;;22.92;50.29
76260;BME280;65076;52.362;6.588;2023-08-08T11:45:06;101125.59;;;23.56;48.35
76260;BME280;65076;52.362;6.588;2023-08-08T11:47:37;101122.16;;;24.08;47.90
76260;BME280;65076;52.362;6.588;2023-08-08T11:50:08;101134.25;;;23.80;48.56
76260;BME280;65076;52.362;6.588;2023-08-08T11:52:40;101136.44;;;24.04;47.55
76260;BME280;65076;52.362;6.588;2023-08-08T11:55:10;101123.94;;;24.37;45.20
76260;BME280;65076;52.362;6.588;2023-08-08T11:57:40;101117.53;;;24.36;43.81
76260;BME280;65076;52.362;6.588;2023-08-08T12:00:09;101123.97;;;22.88;48.18
76260;BME280;65076;52.362;6.588;2023-08-08T12:02:39;101120.31;;;22.68;45.96
76260;BME280;65076;52.362;6.588;2023-08-08T12:05:10;101127.50;;;22.21;48.54
76260;BME280;65076;52.362;6.588;2023-08-08T12:07:40;101135.03;;;21.07;51.21
76260;BME280;65076;52.362;6.588;2023-08-08T12:10:15;101134.44;;;22.06;50.02
76260;BME280;65076;52.362;6.588;2023-08-08T12:12:51;101121.72;;;21.23;48.71
76260;BME280;65076;52.362;6.588;2023-08-08T12:15:21;101132.88;;;20.90;49.07
76260;BME280;65076;52.362;6.588;2023-08-08T12:17:50;101134.25;;;20.63;51.55
76260;BME280;65076;52.362;6.588;2023-08-08T12:20:18;101138.91;;;21.04;51.03
76260;BME280;65076;52.362;6.588;2023-08-08T12:22:47;101127.16;;;22.05;48.90
76260;BME280;65076;52.362;6.588;2023-08-08T12:25:15;101129.19;;;23.00;45.19
76260;BME280;65076;52.362;6.588;2023-08-08T12:27:43;101121.47;;;23.23;46.19
76260;BME280;65076;52.362;6.588;2023-08-08T12:30:16;101127.31;;;23.67;44.68
76260;BME280;65076;52.362;6.588;2023-08-08T12:32:44;101126.28;;;23.68;43.98
76260;BME280;65076;52.362;6.588;2023-08-08T12:35:12;101124.91;;;23.35;43.85
76260;BME280;65076;52.362;6.588;2023-08-08T12:37:42;101131.06;;;23.00;43.67
76260;BME280;65076;52.362;6.588;2023-08-08T12:40:11;101134.28;;;22.95;44.34
76260;BME280;65076;52.362;6.588;2023-08-08T12:42:39;101121.44;;;23.79;42.70
76260;BME280;65076;52.362;6.588;2023-08-08T12:45:08;101118.59;;;23.98;43.04
76260;BME280;65076;52.362;6.588;2023-08-08T12:47:38;101130.56;;;23.89;42.26
76260;BME280;65076;52.362;6.588;2023-08-08T12:50:07;101146.75;;;23.09;43.08
76260;BME280;65076;52.362;6.588;2023-08-08T12:52:35;101140.75;;;22.36;44.11
76260;BME280;65076;52.362;6.588;2023-08-08T12:55:05;101140.16;;;23.58;43.70
76260;BME280;65076;52.362;6.588;2023-08-08T12:57:35;101150.00;;;23.60;44.12
76260;BME280;65076;52.362;6.588;2023-08-08T13:00:05;101145.72;;;23.85;43.27
76260;BME280;65076;52.362;6.588;2023-08-08T13:02:35;101139.94;;;23.79;43.71
76260;BME280;65076;52.362;6.588;2023-08-08T13:05:35;101146.47;;;22.83;45.27